Time;durP1;ratioP1;P1;durP2;ratioP2;P2;SDS_P1;SDS_P2;PMS_P1;PMS_P2;Temp;Humidity;BMP_temperature;BMP_pressure;BME280_temperature;BME280_humidity;BME280_pressure;Samples;Min_cycle;Max_cycle;Signal;HPM_P1;HPM_P2
2023/05/06 00:00:15;;;;;;;6.23;3.90;;;12.40;99.90;;;;;;4934534;29;20230;-61
2023/05/06 00:02:43;;;;;;;4.37;3.80;;;12.40;99.90;;;;;;4935322;29;20647;-62
2023/05/06 00:05:11;;;;;;;3.70;3.40;;;12.40;99.90;;;;;;4937158;29;20212;-62
2023/05/06 00:07:41;;;;;;;7.17;3.77;;;12.30;99.90;;;;;;4933207;29;20683;-61
2023/05/06 00:10:10;;;;;;;3.57;3.23;;;12.30;99.90;;;;;;4932922;29;20256;-61
2023/05/06 00:12:38;;;;;;;3.53;3.20;;;12.20;99.90;;;;;;4928767;29;20714;-62
2023/05/06 00:15:08;;;;;;;3.60;3.30;;;12.20;99.90;;;;;;4933824;29;20192;-62
2023/05/06 00:17:36;;;;;;;5.17;3.70;;;12.20;99.90;;;;;;4942138;29;20234;-62
2023/05/06 00:20:06;;;;;;;6.23;3.70;;;12.20;99.90;;;;;;4930484;29;20224;-62
2023/05/06 00:22:34;;;;;;;3.43;3.23;;;12.10;99.90;;;;;;4933268;29;20707;-61
2023/05/06 00:25:04;;;;;;;5.37;3.50;;;12.10;99.90;;;;;;4930691;29;20268;-61
2023/05/06 00:27:33;;;;;;;4.23;3.70;;;12.10;99.90;;;;;;4923890;29;20224;-62
2023/05/06 00:30:01;;;;;;;4.30;3.40;;;12.00;99.90;;;;;;4927878;29;20254;-62
2023/05/06 00:32:29;;;;;;;3.73;3.47;;;12.00;99.90;;;;;;4929372;29;20249;-61
2023/05/06 00:34:57;;;;;;;3.60;3.40;;;12.00;99.90;;;;;;4926931;29;20261;-62
2023/05/06 00:37:26;;;;;;;7.83;4.20;;;11.90;99.90;;;;;;4932736;29;20228;-62
2023/05/06 00:39:54;;;;;;;4.50;3.50;;;11.90;99.90;;;;;;4929468;29;20221;-61
2023/05/06 00:42:24;;;;;;;3.63;3.40;;;11.90;99.90;;;;;;4932787;29;20625;-61
2023/05/06 00:44:52;;;;;;;3.90;3.60;;;11.90;99.90;;;;;;4932454;29;20188;-61
2023/05/06 00:47:22;;;;;;;7.03;3.90;;;11.90;99.90;;;;;;4923191;29;20286;-61
2023/05/06 00:49:50;;;;;;;3.83;3.57;;;11.80;99.90;;;;;;4925756;29;20304;-62
2023/05/06 00:52:19;;;;;;;6.40;3.77;;;11.80;99.90;;;;;;4930648;29;20695;-62
2023/05/06 00:54:48;;;;;;;4.17;3.50;;;11.80;99.90;;;;;;4934213;29;20232;-62
2023/05/06 00:57:17;;;;;;;5.00;3.60;;;11.80;99.90;;;;;;4925930;29;20256;-62
2023/05/06 00:59:46;;;;;;;3.97;3.67;;;11.80;99.90;;;;;;4921855;29;20279;-62
2023/05/06 01:05:21;;;;;;;4.80;3.67;;;11.70;99.90;;;;;;5227446;23;20235;-59
2023/05/06 01:07:59;;;;;;;4.10;3.70;;;11.70;99.90;;;;;;4949545;28;20192;-60
2023/05/06 01:10:33;;;;;;;8.97;3.97;;;11.70;99.90;;;;;;4945656;29;20227;-59
2023/05/06 01:13:08;;;;;;;4.60;3.97;;;11.70;99.90;;;;;;4937167;29;20232;-60
2023/05/06 01:15:43;;;;;;;4.40;3.77;;;11.70;99.90;;;;;;4950013;28;20230;-59
2023/05/06 01:18:15;;;;;;;4.30;4.00;;;11.60;99.90;;;;;;4949323;29;20235;-59
2023/05/06 01:20:48;;;;;;;8.97;3.90;;;11.70;99.90;;;;;;4946857;29;20226;-59
2023/05/06 01:23:18;;;;;;;5.73;3.83;;;11.70;99.90;;;;;;4948084;28;20228;-59
2023/05/06 01:25:46;;;;;;;4.10;3.70;;;11.70;99.90;;;;;;4951043;28;20764;-59
2023/05/06 01:28:15;;;;;;;5.67;3.50;;;11.60;99.90;;;;;;4950188;28;20278;-59
2023/05/06 01:30:52;;;;;;;7.93;3.90;;;11.60;99.90;;;;;;4951582;28;20230;-59
2023/05/06 01:33:32;;;;;;;3.80;3.50;;;11.60;99.90;;;;;;4948649;29;20193;-60
2023/05/06 01:36:08;;;;;;;4.30;3.90;;;11.60;99.90;;;;;;4953797;28;20602;-59
2023/05/06 01:38:46;;;;;;;4.20;3.80;;;11.60;99.90;;;;;;4950048;28;20215;-59
2023/05/06 01:41:16;;;;;;;4.53;4.03;;;11.50;99.90;;;;;;4949853;28;20234;-59
2023/05/06 01:43:47;;;;;;;3.93;3.63;;;11.50;99.90;;;;;;4954972;29;20256;-59
2023/05/06 01:46:18;;;;;;;4.20;3.90;;;11.50;99.90;;;;;;4947294;28;20585;-59
2023/05/06 01:48:49;;;;;;;5.77;3.83;;;11.50;99.90;;;;;;4950432;28;20276;-59
2023/05/06 01:51:18;;;;;;;3.87;3.50;;;11.50;99.90;;;;;;4928738;29;20201;-59
2023/05/06 01:53:47;;;;;;;5.20;3.90;;;11.40;99.90;;;;;;4950720;28;20634;-59
2023/05/06 01:56:16;;;;;;;7.00;4.07;;;11.40;99.90;;;;;;4935001;28;20267;-59
2023/05/06 01:58:45;;;;;;;5.47;4.50;;;11.30;99.90;;;;;;4950445;28;20232;-59
2023/05/06 02:01:13;;;;;;;4.63;4.23;;;11.30;99.90;;;;;;4950964;28;20306;-59
2023/05/06 02:03:41;;;;;;;7.03;4.53;;;11.30;99.90;;;;;;4933098;29;20228;-59
2023/05/06 02:06:10;;;;;;;4.37;4.00;;;11.20;99.90;;;;;;4929110;29;20249;-59
2023/05/06 02:08:39;;;;;;;4.53;4.20;;;11.20;99.90;;;;;;4928974;29;20220;-59
2023/05/06 02:11:09;;;;;;;6.23;4.63;;;11.20;99.90;;;;;;4928503;29;20224;-60
2023/05/06 02:13:37;;;;;;;5.27;4.77;;;11.20;99.90;;;;;;4930613;29;20223;-60
2023/05/06 02:16:05;;;;;;;6.20;5.00;;;11.20;99.90;;;;;;4925944;29;20280;-60
2023/05/06 02:18:34;;;;;;;5.13;4.63;;;11.20;99.90;;;;;;4929053;29;20229;-59
2023/05/06 02:21:03;;;;;;;6.30;5.10;;;11.10;99.90;;;;;;4929576;29;20198;-59
2023/05/06 02:23:31;;;;;;;5.10;4.70;;;11.10;99.90;;;;;;4929534;29;20224;-59
2023/05/06 02:25:59;;;;;;;5.63;5.03;;;11.10;99.90;;;;;;4924835;29;20221;-59
2023/05/06 02:28:29;;;;;;;7.63;5.10;;;11.10;99.90;;;;;;4925328;29;20782;-59
2023/05/06 02:30:57;;;;;;;5.10;4.60;;;11.00;99.90;;;;;;4907844;29;20279;-59
2023/05/06 02:33:25;;;;;;;5.67;4.93;;;11.10;99.90;;;;;;4928385;29;20193;-59
2023/05/06 02:35:54;;;;;;;6.00;4.73;;;11.00;99.90;;;;;;4928779;29;20209;-59
2023/05/06 02:38:22;;;;;;;5.53;4.73;;;11.00;99.90;;;;;;4932095;29;20221;-60
2023/05/06 02:40:50;;;;;;;6.57;5.00;;;11.00;99.90;;;;;;4930649;29;20280;-60
2023/05/06 02:43:19;;;;;;;5.40;4.90;;;10.90;99.90;;;;;;4933033;29;20235;-59
2023/05/06 02:45:48;;;;;;;5.23;4.73;;;10.90;99.90;;;;;;4932530;29;20548;-59
2023/05/06 02:48:17;;;;;;;5.03;4.63;;;10.90;99.90;;;;;;4925330;29;20547;-59
2023/05/06 02:50:45;;;;;;;7.90;5.00;;;10.80;99.90;;;;;;4922056;29;20193;-59
2023/05/06 02:53:14;;;;;;;5.80;5.30;;;10.80;99.90;;;;;;4911892;29;20284;-59
2023/05/06 02:55:42;;;;;;;6.17;5.57;;;10.80;99.90;;;;;;4928072;29;20243;-59
2023/05/06 02:58:10;;;;;;;5.97;5.57;;;10.80;99.90;;;;;;4923686;29;20296;-59
2023/05/06 03:00:38;;;;;;;6.47;5.70;;;10.70;99.90;;;;;;4930465;29;20240;-60
2023/05/06 03:03:09;;;;;;;6.77;6.17;;;10.70;99.90;;;;;;4937926;28;20209;-59
2023/05/06 03:05:38;;;;;;;6.30;5.70;;;10.70;99.90;;;;;;4931052;29;20279;-59
2023/05/06 03:08:06;;;;;;;6.10;5.50;;;10.60;99.90;;;;;;4925032;29;20221;-59
2023/05/06 03:10:35;;;;;;;6.43;5.67;;;10.60;99.90;;;;;;4941194;29;20639;-59
2023/05/06 03:13:03;;;;;;;6.23;5.73;;;10.50;99.90;;;;;;4932409;29;20295;-60
2023/05/06 03:15:31;;;;;;;6.93;5.63;;;10.50;99.90;;;;;;4932147;29;20251;-59
2023/05/06 03:18:00;;;;;;;5.97;5.47;;;10.50;99.90;;;;;;4933584;29;20616;-60
2023/05/06 03:20:30;;;;;;;6.37;5.80;;;10.50;99.90;;;;;;4932518;29;20691;-60
2023/05/06 03:22:58;;;;;;;8.47;6.43;;;10.40;99.90;;;;;;4921519;29;20225;-60
2023/05/06 03:25:26;;;;;;;6.80;6.20;;;10.40;99.90;;;;;;4928064;29;20229;-60
2023/05/06 03:27:55;;;;;;;9.63;6.47;;;10.40;99.90;;;;;;4919373;29;20248;-59
2023/05/06 03:30:23;;;;;;;8.87;6.70;;;10.40;99.90;;;;;;4932793;29;20196;-59
2023/05/06 03:32:51;;;;;;;6.87;6.27;;;10.40;99.90;;;;;;4923737;29;20201;-60
2023/05/06 03:35:20;;;;;;;6.90;6.20;;;10.40;99.90;;;;;;4934412;29;20217;-59
2023/05/06 03:37:49;;;;;;;7.60;6.73;;;10.40;99.90;;;;;;4931132;29;20690;-60
2023/05/06 03:40:20;;;;;;;9.20;7.23;;;10.40;99.90;;;;;;4932404;29;20225;-60
2023/05/06 03:42:50;;;;;;;7.40;6.80;;;10.30;99.90;;;;;;4925046;29;20232;-59
2023/05/06 03:45:18;;;;;;;8.17;7.03;;;10.30;99.90;;;;;;4930930;29;20188;-58
2023/05/06 03:47:46;;;;;;;7.53;6.90;;;10.30;99.90;;;;;;4928798;29;20664;-60
2023/05/06 03:50:15;;;;;;;7.27;6.40;;;10.20;99.90;;;;;;4930247;29;20579;-60
2023/05/06 03:52:43;;;;;;;9.33;7.33;;;10.30;99.90;;;;;;4935991;29;20224;-60
2023/05/06 03:55:13;;;;;;;9.00;7.60;;;10.30;99.90;;;;;;4930132;29;20224;-59
2023/05/06 03:57:41;;;;;;;9.37;7.47;;;10.30;99.90;;;;;;4924979;29;20229;-61
2023/05/06 04:00:11;;;;;;;10.10;7.43;;;10.30;99.90;;;;;;4933562;29;20204;-60
2023/05/06 04:02:41;;;;;;;11.37;8.10;;;10.30;99.90;;;;;;4933673;29;20228;-60
2023/05/06 04:05:09;;;;;;;10.23;7.87;;;10.30;99.90;;;;;;4922682;29;20972;-60
2023/05/06 04:07:38;;;;;;;11.47;8.33;;;10.20;99.90;;;;;;4928982;29;20268;-59
2023/05/06 04:10:08;;;;;;;10.30;8.43;;;10.20;99.90;;;;;;4931350;29;20229;-59
2023/05/06 04:12:38;;;;;;;9.50;8.17;;;10.20;99.90;;;;;;4927989;29;20658;-59
2023/05/06 04:15:07;;;;;;;9.43;8.10;;;10.20;99.90;;;;;;4931881;29;20275;-59
2023/05/06 04:17:36;;;;;;;15.23;9.57;;;10.20;99.90;;;;;;4929883;29;20228;-59
2023/05/06 04:20:06;;;;;;;12.70;8.20;;;10.10;99.90;;;;;;4926463;29;20651;-59
2023/05/06 04:22:34;;;;;;;8.90;8.00;;;10.20;99.90;;;;;;4925530;29;20224;-60
2023/05/06 04:25:02;;;;;;;11.93;8.47;;;10.20;99.90;;;;;;4923190;29;20269;-59
2023/05/06 04:27:31;;;;;;;8.27;7.57;;;10.20;99.90;;;;;;4932304;29;20197;-60
2023/05/06 04:30:00;;;;;;;12.13;8.43;;;10.20;99.90;;;;;;4932599;29;20190;-60
2023/05/06 04:32:28;;;;;;;9.90;7.90;;;10.20;99.90;;;;;;4925475;29;20292;-60
2023/05/06 04:34:57;;;;;;;10.57;8.37;;;10.10;99.90;;;;;;4933055;29;20307;-60
2023/05/06 04:37:27;;;;;;;11.83;7.33;;;10.20;99.90;;;;;;4933510;29;20217;-59
2023/05/06 04:39:56;;;;;;;8.57;7.73;;;10.10;99.90;;;;;;4932847;29;20279;-59
2023/05/06 04:42:24;;;;;;;9.60;8.20;;;10.10;99.90;;;;;;4926063;29;21159;-60
2023/05/06 04:44:52;;;;;;;9.73;7.70;;;10.20;99.90;;;;;;4929622;29;20197;-60
2023/05/06 04:47:22;;;;;;;10.47;7.80;;;10.20;99.90;;;;;;4931497;29;20224;-60
2023/05/06 04:49:50;;;;;;;8.43;7.63;;;10.20;99.90;;;;;;4923511;29;20225;-59
2023/05/06 04:52:18;;;;;;;10.03;7.30;;;10.20;99.90;;;;;;4925049;29;20221;-60
2023/05/06 04:54:47;;;;;;;10.13;7.53;;;10.30;99.90;;;;;;4925082;29;20228;-60
2023/05/06 04:57:15;;;;;;;12.03;7.60;;;10.30;99.90;;;;;;4914414;29;20268;-59
2023/05/06 04:59:43;;;;;;;8.33;7.53;;;10.30;99.90;;;;;;4937257;28;20676;-60
2023/05/06 05:02:11;;;;;;;10.73;7.80;;;10.40;99.90;;;;;;4938470;29;20235;-59
2023/05/06 05:04:41;;;;;;;9.37;7.60;;;10.40;99.90;;;;;;4934108;29;20225;-60
2023/05/06 05:07:10;;;;;;;8.93;7.53;;;10.40;99.90;;;;;;4924491;29;20221;-60
2023/05/06 05:09:38;;;;;;;7.87;7.13;;;10.50;99.90;;;;;;4918586;29;20667;-59
2023/05/06 05:12:07;;;;;;;10.37;7.30;;;10.60;99.90;;;;;;4932957;29;20265;-60
2023/05/06 05:14:35;;;;;;;8.17;6.93;;;10.70;99.90;;;;;;4929340;29;20296;-60
2023/05/06 05:17:03;;;;;;;10.40;7.23;;;10.70;99.90;;;;;;4931890;29;20221;-60
2023/05/06 05:19:31;;;;;;;8.20;7.37;;;10.80;99.90;;;;;;4924757;29;20806;-60
2023/05/06 05:22:01;;;;;;;10.70;7.03;;;10.80;99.90;;;;;;4928255;29;20677;-60
2023/05/06 05:24:29;;;;;;;7.33;6.17;;;10.90;99.90;;;;;;4929680;29;20197;-60
2023/05/06 05:26:57;;;;;;;6.67;6.07;;;11.00;99.90;;;;;;4927768;29;20201;-60
2023/05/06 05:29:26;;;;;;;8.63;7.10;;;11.00;99.90;;;;;;4930814;29;20220;-59
2023/05/06 05:31:54;;;;;;;10.63;6.80;;;11.10;99.90;;;;;;4929471;29;20279;-59
2023/05/06 05:34:22;;;;;;;8.77;6.47;;;11.30;99.90;;;;;;4932408;29;20228;-60
2023/05/06 05:36:50;;;;;;;6.63;5.90;;;11.40;99.90;;;;;;4913257;29;20307;-59
2023/05/06 05:39:20;;;;;;;9.37;6.30;;;11.50;99.90;;;;;;4933994;29;20520;-59
2023/05/06 05:41:48;;;;;;;9.37;6.13;;;11.60;99.90;;;;;;4931304;29;20197;-59
2023/05/06 05:44:16;;;;;;;6.73;6.03;;;11.80;99.90;;;;;;4930275;29;20227;-60
2023/05/06 05:46:45;;;;;;;6.57;5.67;;;11.90;99.90;;;;;;4926396;29;20221;-59
2023/05/06 05:49:13;;;;;;;7.57;6.10;;;12.20;99.90;;;;;;4929453;29;20704;-60
2023/05/06 05:51:42;;;;;;;11.00;5.50;;;12.30;99.90;;;;;;4926148;29;20221;-60
2023/05/06 05:54:10;;;;;;;8.07;5.20;;;12.50;99.90;;;;;;4924815;29;20204;-60
2023/05/06 05:56:39;;;;;;;6.77;5.33;;;12.60;99.90;;;;;;4927648;29;20221;-60
2023/05/06 05:59:07;;;;;;;4.97;4.67;;;12.70;99.90;;;;;;4927865;29;20225;-60
2023/05/06 06:01:36;;;;;;;5.27;4.77;;;13.00;99.90;;;;;;4928140;29;20225;-59
2023/05/06 06:04:04;;;;;;;6.83;4.90;;;13.20;99.90;;;;;;4933696;29;20248;-60
2023/05/06 06:06:33;;;;;;;5.07;4.63;;;13.30;99.90;;;;;;4933100;29;20563;-60
2023/05/06 06:09:02;;;;;;;5.10;4.60;;;13.50;99.90;;;;;;4934275;29;20190;-60
2023/05/06 06:11:30;;;;;;;5.27;4.77;;;13.60;99.90;;;;;;4923493;29;20221;-60
2023/05/06 06:13:59;;;;;;;5.73;4.47;;;13.60;99.90;;;;;;4927307;29;20221;-61
2023/05/06 06:16:28;;;;;;;4.37;4.07;;;13.70;99.90;;;;;;4932205;29;20213;-60
2023/05/06 06:18:56;;;;;;;4.50;4.10;;;13.90;99.90;;;;;;4929765;29;20232;-60
2023/05/06 06:21:26;;;;;;;6.07;4.10;;;14.20;99.90;;;;;;4924201;29;20264;-60
2023/05/06 06:23:54;;;;;;;4.30;3.87;;;14.40;99.90;;;;;;4924651;29;20215;-59
2023/05/06 06:26:22;;;;;;;4.27;3.97;;;14.60;99.90;;;;;;4927440;29;20216;-60
2023/05/06 06:28:51;;;;;;;6.50;4.30;;;14.80;99.90;;;;;;4896776;29;20259;-59
2023/05/06 06:31:20;;;;;;;4.37;4.07;;;15.00;99.90;;;;;;4928443;29;20224;-59
2023/05/06 06:33:49;;;;;;;4.60;4.20;;;15.10;99.90;;;;;;4930566;29;20212;-60
2023/05/06 06:36:17;;;;;;;5.73;4.10;;;15.20;99.90;;;;;;4919850;29;20196;-59
2023/05/06 06:38:45;;;;;;;5.43;3.50;;;15.40;99.90;;;;;;4921734;29;20262;-60
2023/05/06 06:41:14;;;;;;;4.07;3.37;;;15.40;99.90;;;;;;4924295;29;20221;-59
2023/05/06 06:43:42;;;;;;;4.97;3.27;;;15.50;99.90;;;;;;4927512;29;20225;-60
2023/05/06 06:46:10;;;;;;;4.37;3.33;;;15.40;99.90;;;;;;4924557;29;20233;-59
2023/05/06 06:48:40;;;;;;;3.73;3.23;;;15.60;99.90;;;;;;4924327;29;20588;-59
2023/05/06 06:51:08;;;;;;;3.60;3.30;;;15.50;99.90;;;;;;4921943;29;20248;-59
2023/05/06 06:53:37;;;;;;;4.33;3.50;;;15.50;99.90;;;;;;4922804;29;20226;-59
2023/05/06 06:56:09;;;;;;;3.40;3.20;;;15.70;99.90;;;;;;4922711;29;20697;-60
2023/05/06 06:58:38;;;;;;;4.10;3.50;;;15.90;99.90;;;;;;4929390;29;20241;-60
2023/05/06 07:01:06;;;;;;;4.00;3.60;;;16.20;99.90;;;;;;4928459;29;20266;-60
2023/05/06 07:03:34;;;;;;;3.30;3.10;;;16.10;99.90;;;;;;4928678;29;20289;-60
2023/05/06 07:06:04;;;;;;;3.63;3.20;;;16.10;99.90;;;;;;4929673;29;20227;-60
2023/05/06 07:08:32;;;;;;;3.87;3.57;;;16.00;99.90;;;;;;4912314;29;20227;-60
2023/05/06 07:11:02;;;;;;;3.10;2.80;;;16.00;99.90;;;;;;4931792;29;20231;-59
2023/05/06 07:13:30;;;;;;;3.63;3.10;;;16.20;99.90;;;;;;4926479;29;20230;-60
2023/05/06 07:16:01;;;;;;;4.17;3.37;;;16.50;99.90;;;;;;4928886;29;20248;-60
2023/05/06 07:18:30;;;;;;;3.57;3.10;;;16.80;99.90;;;;;;4931362;29;20211;-60
2023/05/06 07:20:58;;;;;;;3.50;3.20;;;16.90;99.90;;;;;;4928308;29;20570;-60
2023/05/06 07:23:28;;;;;;;4.37;3.10;;;16.80;99.90;;;;;;4928669;29;20283;-59
2023/05/06 07:25:59;;;;;;;3.63;3.33;;;16.60;99.90;;;;;;4928861;29;20216;-59
2023/05/06 07:28:27;;;;;;;3.87;3.57;;;16.90;99.90;;;;;;4929189;29;20280;-60
2023/05/06 07:30:56;;;;;;;3.80;3.60;;;16.90;99.90;;;;;;4924095;29;20256;-60
2023/05/06 07:33:24;;;;;;;4.40;3.80;;;16.70;99.90;;;;;;4919781;29;20189;-60
2023/05/06 07:35:53;;;;;;;5.90;3.47;;;16.60;99.90;;;;;;4923879;29;20205;-60
2023/05/06 07:38:22;;;;;;;5.73;3.90;;;16.50;99.90;;;;;;4926733;29;20223;-59
2023/05/06 07:40:51;;;;;;;6.80;3.80;;;16.60;99.90;;;;;;4922351;29;20611;-59
2023/05/06 07:43:21;;;;;;;4.53;4.13;;;16.60;99.90;;;;;;4923577;29;20231;-59
2023/05/06 07:45:50;;;;;;;4.17;3.87;;;16.70;99.90;;;;;;4928131;29;20234;-59
2023/05/06 07:48:18;;;;;;;4.50;3.90;;;16.60;99.90;;;;;;4926084;29;20198;-59
2023/05/06 07:50:50;;;;;;;5.50;4.10;;;16.50;99.90;;;;;;4932070;29;20211;-59
2023/05/06 07:53:18;;;;;;;3.87;3.57;;;16.50;99.90;;;;;;4927925;29;20223;-60
2023/05/06 07:55:46;;;;;;;4.40;3.77;;;16.60;99.90;;;;;;4914712;29;20713;-59
2023/05/06 07:58:16;;;;;;;3.40;3.20;;;16.70;99.90;;;;;;4926820;29;20276;-60
2023/05/06 08:00:44;;;;;;;3.50;3.30;;;16.70;99.90;;;;;;4927191;29;20232;-60
2023/05/06 08:03:13;;;;;;;5.13;3.63;;;16.70;99.90;;;;;;4933476;29;20216;-60
2023/05/06 08:05:41;;;;;;;4.37;3.30;;;16.80;99.90;;;;;;4929272;29;20292;-60
2023/05/06 08:08:10;;;;;;;3.40;3.10;;;17.00;99.90;;;;;;4932113;29;20224;-60
2023/05/06 08:10:38;;;;;;;3.60;3.30;;;17.30;99.90;;;;;;4931070;29;21265;-60
2023/05/06 08:13:06;;;;;;;8.20;3.93;;;17.50;99.90;;;;;;4925768;29;20220;-60
2023/05/06 08:15:36;;;;;;;4.57;3.40;;;18.30;99.90;;;;;;4937100;29;20231;-60
2023/05/06 08:18:04;;;;;;;3.67;3.37;;;18.50;99.90;;;;;;4930016;29;20267;-60
2023/05/06 08:20:50;;;;;;;3.97;3.13;;;18.40;99.90;;;;;;4933994;29;20251;-60
2023/05/06 08:23:18;;;;;;;3.17;2.97;;;18.50;99.90;;;;;;4924467;29;20296;-60
2023/05/06 08:25:46;;;;;;;2.80;2.60;;;18.80;99.90;;;;;;4929219;29;20283;-60
2023/05/06 08:28:15;;;;;;;4.77;3.00;;;19.00;99.90;;;;;;4930972;29;20261;-60
2023/05/06 08:30:46;;;;;;;4.63;3.10;;;19.40;99.90;;;;;;4927999;29;20547;-60
2023/05/06 08:33:14;;;;;;;2.93;2.73;;;19.50;99.90;;;;;;4920022;29;20199;-60
2023/05/06 08:35:43;;;;;;;3.43;2.93;;;19.70;99.90;;;;;;4932007;29;20220;-60
2023/05/06 08:38:12;;;;;;;2.97;2.77;;;20.10;99.90;;;;;;4928407;29;20229;-61
2023/05/06 08:40:43;;;;;;;4.07;3.10;;;20.50;99.90;;;;;;4930385;29;20228;-60
2023/05/06 08:43:13;;;;;;;3.57;2.50;;;21.20;99.90;;;;;;4924130;29;20220;-60
2023/05/06 08:45:43;;;;;;;5.60;2.70;;;21.70;99.90;;;;;;4917525;29;20220;-61
2023/05/06 08:48:12;;;;;;;2.50;2.40;;;20.80;99.90;;;;;;4931850;29;20308;-60
2023/05/06 08:50:42;;;;;;;2.40;2.17;;;20.70;99.90;;;;;;4930732;29;20296;-59
2023/05/06 08:53:12;;;;;;;3.40;2.57;;;20.80;99.90;;;;;;4935803;29;20220;-61
2023/05/06 08:55:42;;;;;;;3.03;2.73;;;21.20;99.90;;;;;;4936355;29;20224;-61
2023/05/06 08:58:14;;;;;;;2.60;2.40;;;21.70;99.90;;;;;;4921061;29;20221;-60
2023/05/06 09:00:45;;;;;;;2.50;2.20;;;21.50;99.90;;;;;;4932718;29;20276;-58
2023/05/06 09:03:14;;;;;;;2.30;2.17;;;22.40;99.90;;;;;;4935072;29;20300;-59
2023/05/06 09:05:42;;;;;;;2.35;2.15;;;22.60;99.90;;;;;;4930195;29;20221;-60
2023/05/06 09:08:11;;;;;;;1.87;1.77;;;22.40;99.90;;;;;;4929343;29;20631;-59
2023/05/06 09:10:44;;;;;;;2.67;2.30;;;22.40;99.90;;;;;;4925497;29;20221;-59
2023/05/06 09:13:13;;;;;;;2.42;2.33;;;22.40;99.90;;;;;;4929013;29;20232;-58
2023/05/06 09:15:42;;;;;;;3.63;2.30;;;22.30;99.90;;;;;;4925613;29;20236;-59
2023/05/06 09:18:12;;;;;;;4.30;2.47;;;22.20;99.90;;;;;;4937746;29;20257;-58
2023/05/06 09:20:41;;;;;;;6.23;2.30;;;21.90;99.90;;;;;;4929183;29;20660;-58
2023/05/06 09:23:11;;;;;;;4.37;2.80;;;21.70;99.90;;;;;;4932941;29;20585;-61
2023/05/06 09:25:39;;;;;;;2.93;2.40;;;21.30;99.90;;;;;;4935971;29;20615;-61
2023/05/06 09:28:09;;;;;;;3.00;2.63;;;21.00;99.90;;;;;;4935864;29;20219;-61
2023/05/06 09:30:40;;;;;;;4.63;3.00;;;21.00;99.90;;;;;;4928252;29;20277;-58
2023/05/06 09:33:09;;;;;;;3.17;2.87;;;21.40;99.90;;;;;;4928287;29;20677;-60
2023/05/06 09:35:40;;;;;;;4.50;3.00;;;22.10;99.90;;;;;;4932581;29;20730;-60
2023/05/06 09:38:09;;;;;;;2.70;2.50;;;22.30;99.90;;;;;;4927931;29;20254;-60
2023/05/06 09:40:38;;;;;;;4.00;2.70;;;22.20;99.90;;;;;;4935993;29;20234;-60
2023/05/06 09:43:07;;;;;;;2.70;2.33;;;22.10;99.90;;;;;;4932936;29;20236;-61
2023/05/06 09:45:36;;;;;;;2.53;2.37;;;22.20;99.90;;;;;;4929463;29;20228;-60
2023/05/06 09:48:06;;;;;;;5.17;2.70;;;22.00;99.90;;;;;;4931269;29;20189;-60
2023/05/06 09:50:35;;;;;;;3.10;2.80;;;22.40;99.90;;;;;;4931068;29;20229;-60
2023/05/06 09:53:06;;;;;;;4.63;2.43;;;22.70;99.90;;;;;;4925627;29;20236;-60
2023/05/06 09:55:35;;;;;;;2.97;2.57;;;22.90;99.90;;;;;;4931413;29;20311;-60
2023/05/06 09:58:04;;;;;;;2.87;2.23;;;22.90;99.90;;;;;;4931201;29;20255;-60
2023/05/06 10:00:32;;;;;;;2.37;2.27;;;23.40;99.90;;;;;;4934282;29;20199;-60
2023/05/06 10:03:01;;;;;;;2.90;2.50;;;23.60;99.90;;;;;;4928276;29;20265;-60
2023/05/06 10:05:31;;;;;;;4.27;2.50;;;23.40;99.90;;;;;;4928540;29;20235;-59
2023/05/06 10:08:03;;;;;;;10.23;2.63;;;23.30;99.90;;;;;;4925383;29;20772;-59
2023/05/06 10:10:34;;;;;;;2.60;2.47;;;22.70;99.90;;;;;;4933420;29;20228;-59
2023/05/06 10:13:03;;;;;;;3.90;2.47;;;22.40;99.90;;;;;;4931306;29;20220;-60
2023/05/06 10:15:32;;;;;;;3.27;2.80;;;21.90;99.90;;;;;;4935250;29;20287;-60
2023/05/06 10:18:01;;;;;;;3.27;2.77;;;21.80;99.90;;;;;;4932698;29;20199;-59
2023/05/06 10:20:34;;;;;;;3.17;2.53;;;21.90;99.90;;;;;;4934042;29;20239;-60
2023/05/06 10:23:09;;;;;;;3.20;2.87;;;22.00;99.90;;;;;;4935308;29;20225;-60
2023/05/06 10:25:41;;;;;;;2.93;2.73;;;22.30;99.90;;;;;;4924551;29;20227;-60
2023/05/06 10:28:10;;;;;;;3.97;2.90;;;22.20;99.90;;;;;;4931997;29;20633;-60
2023/05/06 10:30:59;;;;;;;3.00;2.70;;;21.70;99.90;;;;;;4931607;29;20223;-60
2023/05/06 10:33:28;;;;;;;2.90;2.70;;;21.50;99.90;;;;;;4933863;29;20214;-60
2023/05/06 10:36:07;;;;;;;5.43;2.63;;;21.60;99.90;;;;;;4935006;29;20273;-60
2023/05/06 10:38:41;;;;;;;3.20;2.93;;;21.80;99.90;;;;;;4929613;29;20228;-60
2023/05/06 10:41:12;;;;;;;3.97;2.80;;;21.90;99.90;;;;;;4925378;29;20715;-60
2023/05/06 10:43:42;;;;;;;3.93;2.80;;;21.90;99.90;;;;;;4927877;29;20241;-61
2023/05/06 10:46:11;;;;;;;2.47;1.97;;;21.90;99.90;;;;;;4928746;29;20795;-60
2023/05/06 10:49:17;;;;;;;3.90;2.13;;;21.90;99.90;;;;;;4909497;29;20308;-60
2023/05/06 10:51:47;;;;;;;4.03;2.23;;;22.00;99.90;;;;;;4929065;29;20234;-60
2023/05/06 10:54:23;;;;;;;3.27;2.00;;;22.20;99.90;;;;;;4927674;29;20258;-60
2023/05/06 10:57:12;;;;;;;3.10;2.60;;;22.70;99.90;;;;;;4928513;29;20202;-60
2023/05/06 10:59:46;;;;;;;3.63;1.90;;;22.70;99.90;;;;;;4930721;29;20270;-60
2023/05/06 11:02:18;;;;;;;3.17;2.30;;;22.30;99.90;;;;;;4923077;29;20237;-60
2023/05/06 11:04:51;;;;;;;4.37;2.07;;;21.80;99.90;;;;;;4927066;29;20258;-59
2023/05/06 11:07:24;;;;;;;2.57;2.20;;;21.50;99.90;;;;;;4931626;29;20266;-60
2023/05/06 11:09:57;;;;;;;2.97;2.40;;;21.30;99.90;;;;;;4928638;29;20224;-59
2023/05/06 11:12:49;;;;;;;3.63;2.23;;;21.10;99.90;;;;;;4927060;29;20210;-59
2023/05/06 11:15:26;;;;;;;2.77;2.20;;;21.20;99.90;;;;;;4928906;29;20199;-60
2023/05/06 11:17:55;;;;;;;2.27;2.10;;;21.30;99.90;;;;;;4933441;29;21224;-60
2023/05/06 11:20:25;;;;;;;4.57;2.20;;;21.30;99.90;;;;;;4933500;29;20678;-59
2023/05/06 11:22:54;;;;;;;3.00;2.50;;;21.20;99.90;;;;;;4927696;29;20651;-60
2023/05/06 11:25:42;;;;;;;5.70;2.33;;;21.10;99.90;;;;;;4933565;29;20221;-60
2023/05/06 11:28:13;;;;;;;3.27;2.20;;;21.30;99.90;;;;;;4930762;29;20607;-60
2023/05/06 11:30:43;;;;;;;2.07;1.87;;;21.40;99.90;;;;;;4928576;29;20232;-60
2023/05/06 11:33:18;;;;;;;3.10;1.83;;;21.30;99.90;;;;;;4929411;29;20203;-60
2023/05/06 11:35:47;;;;;;;2.20;1.87;;;21.30;99.90;;;;;;4927594;29;20217;-60
2023/05/06 11:38:15;;;;;;;2.70;2.50;;;21.40;99.90;;;;;;4918235;29;20225;-60
2023/05/06 11:40:44;;;;;;;3.07;2.50;;;21.60;99.90;;;;;;4927632;29;20225;-60
2023/05/06 11:43:15;;;;;;;5.30;2.20;;;21.80;99.90;;;;;;4927113;29;20230;-60
2023/05/06 11:45:44;;;;;;;4.87;2.00;;;22.00;99.90;;;;;;4931859;29;20224;-60
2023/05/06 11:48:13;;;;;;;3.47;2.00;;;22.00;99.90;;;;;;4932947;29;20187;-59
2023/05/06 11:50:45;;;;;;;3.97;2.17;;;22.10;99.90;;;;;;4932219;29;20273;-60
2023/05/06 11:53:17;;;;;;;3.10;1.83;;;22.40;99.90;;;;;;4930362;29;20243;-60
2023/05/06 11:55:46;;;;;;;2.33;2.10;;;22.50;99.90;;;;;;4927749;29;20709;-60
2023/05/06 11:58:17;;;;;;;3.27;2.20;;;22.40;99.90;;;;;;4916381;29;20232;-60
2023/05/06 12:00:49;;;;;;;3.83;2.20;;;22.40;99.90;;;;;;4928235;29;20280;-60
2023/05/06 12:03:19;;;;;;;2.50;2.00;;;22.30;99.90;;;;;;4916995;29;20226;-60
2023/05/06 12:05:48;;;;;;;3.33;2.10;;;22.00;99.90;;;;;;4926203;29;20239;-61
2023/05/06 12:08:19;;;;;;;3.63;1.67;;;21.70;99.90;;;;;;4892979;29;20274;-59
2023/05/06 12:10:58;;;;;;;2.50;1.77;;;21.70;99.90;;;;;;4920140;29;20569;-60
2023/05/06 12:13:28;;;;;;;4.13;2.30;;;21.50;99.90;;;;;;4927143;29;20220;-60
2023/05/06 12:15:58;;;;;;;5.93;2.40;;;21.30;99.90;;;;;;4937145;29;20230;-59
2023/05/06 12:18:27;;;;;;;2.03;1.77;;;21.10;99.90;;;;;;4924838;29;20687;-60
2023/05/06 12:20:56;;;;;;;4.20;2.07;;;21.00;99.90;;;;;;4929542;29;20296;-60
2023/05/06 12:23:25;;;;;;;5.00;2.10;;;21.00;99.90;;;;;;4930696;29;20220;-60
2023/05/06 12:26:02;;;;;;;5.50;1.90;;;20.90;99.90;;;;;;4929042;29;20225;-60
2023/05/06 12:28:33;;;;;;;5.37;2.30;;;20.90;99.90;;;;;;4931789;29;20232;-60
2023/05/06 12:31:17;;;;;;;5.17;2.40;;;20.80;99.90;;;;;;4930051;29;20228;-60
2023/05/06 12:33:47;;;;;;;2.20;2.00;;;20.70;99.90;;;;;;4927846;29;20228;-61
2023/05/06 12:36:18;;;;;;;8.77;2.00;;;20.60;99.90;;;;;;4923940;29;20205;-60
2023/05/06 12:38:53;;;;;;;3.60;2.20;;;20.50;99.90;;;;;;4930585;29;20339;-60
2023/05/06 12:41:23;;;;;;;3.40;1.50;;;20.40;99.90;;;;;;4922646;29;20229;-60
2023/05/06 12:43:53;;;;;;;2.37;1.53;;;20.40;99.90;;;;;;4926405;29;20613;-60
2023/05/06 12:46:22;;;;;;;2.03;1.73;;;20.40;99.90;;;;;;4928455;29;20311;-60
2023/05/06 12:49:00;;;;;;;3.70;1.70;;;20.40;99.90;;;;;;4927726;29;20221;-60
2023/05/06 12:51:31;;;;;;;2.77;1.97;;;20.50;99.90;;;;;;4925733;29;20193;-60
2023/05/06 12:53:59;;;;;;;2.67;2.00;;;20.70;99.90;;;;;;4924993;29;20559;-60
2023/05/06 12:56:27;;;;;;;3.63;1.87;;;20.70;99.90;;;;;;4927866;29;20220;-59
2023/05/06 12:58:58;;;;;;;4.90;2.40;;;20.70;99.90;;;;;;4920886;29;20632;-59
2023/05/06 13:01:26;;;;;;;3.80;1.70;;;20.70;99.90;;;;;;4932680;29;20228;-60